Time;durP1;ratioP1;P1;durP2;ratioP2;P2;SDS_P1;SDS_P2;PMS_P1;PMS_P2;Temp;Humidity;BMP_temperature;BMP_pressure;BME280_temperature;BME280_humidity;BME280_pressure;Samples;Min_cycle;Max_cycle;Signal;HPM_P1;HPM_P2
2023/12/18 00:00:50;;;;;;;8.70;7.13;;;;;;;4.38;79.09;97289.09;5075487;28;20232;-84
2023/12/18 00:03:16;;;;;;;9.33;7.20;;;;;;;4.44;78.68;97286.16;5094293;28;20204;-84
2023/12/18 00:05:43;;;;;;;9.57;6.90;;;;;;;4.47;78.52;97273.22;5096012;28;20212;-86
2023/12/18 00:08:11;;;;;;;9.53;7.43;;;;;;;4.45;78.60;97273.31;5091411;28;20195;-88
2023/12/18 00:10:37;;;;;;;8.43;6.83;;;;;;;4.45;78.27;97269.94;5096235;28;20251;-87
2023/12/18 00:13:06;;;;;;;8.50;6.73;;;;;;;4.42;78.24;97265.88;5096106;28;20315;-87
2023/12/18 00:15:33;;;;;;;8.27;7.00;;;;;;;4.40;78.74;97269.44;5092160;28;20193;-86
2023/12/18 00:17:59;;;;;;;8.20;6.77;;;;;;;4.45;78.42;97282.69;5077591;28;20208;-84
2023/12/18 00:20:26;;;;;;;7.80;6.40;;;;;;;4.45;78.51;97267.38;5096397;28;20230;-84
2023/12/18 00:22:52;;;;;;;8.70;6.80;;;;;;;4.47;78.33;97263.00;5096219;28;20207;-85
2023/12/18 00:25:19;;;;;;;7.00;6.30;;;;;;;4.49;77.98;97256.91;5084658;28;20203;-84
2023/12/18 00:27:45;;;;;;;7.20;6.50;;;;;;;4.50;77.73;97253.44;5083269;28;20197;-85
2023/12/18 00:30:14;;;;;;;8.53;6.87;;;;;;;4.50;77.54;97242.41;5084281;28;20224;-87
2023/12/18 00:32:40;;;;;;;7.90;6.57;;;;;;;4.47;77.60;97242.59;5078524;28;20221;-85
2023/12/18 00:35:07;;;;;;;7.93;6.63;;;;;;;4.45;77.53;97240.16;5095115;28;20696;-85
2023/12/18 00:37:34;;;;;;;7.67;6.40;;;;;;;4.47;77.87;97250.25;5094942;28;20198;-84
2023/12/18 00:40:00;;;;;;;7.23;6.07;;;;;;;4.35;78.19;97248.50;5095438;28;20213;-85
2023/12/18 00:42:27;;;;;;;7.03;6.17;;;;;;;4.30;78.10;97243.69;5096856;28;20192;-84
2023/12/18 00:44:53;;;;;;;6.63;5.93;;;;;;;4.31;78.60;97258.06;5096761;28;20200;-84
2023/12/18 00:47:25;;;;;;;7.77;5.47;;;;;;;4.35;79.28;97269.72;5096976;28;20193;-85
2023/12/18 00:49:51;;;;;;;7.03;5.80;;;;;;;4.40;79.50;97288.09;5086612;28;20247;-85
2023/12/18 00:52:18;;;;;;;8.13;5.50;;;;;;;4.40;78.89;97275.34;5090201;28;20228;-84
2023/12/18 00:54:44;;;;;;;6.70;5.70;;;;;;;4.43;78.96;97272.59;5096627;28;20207;-84
2023/12/18 00:57:11;;;;;;;6.80;5.53;;;;;;;4.42;78.91;97278.63;5077970;28;20207;-83
2023/12/18 00:59:37;;;;;;;6.40;5.20;;;;;;;4.46;79.41;97276.66;5075811;28;20216;-84
2023/12/18 01:02:04;;;;;;;5.37;4.87;;;;;;;4.46;79.11;97274.94;5076931;28;20384;-85
2023/12/18 01:04:32;;;;;;;6.87;5.30;;;;;;;4.42;78.94;97275.25;5076551;28;20208;-86
2023/12/18 01:06:58;;;;;;;5.23;4.73;;;;;;;4.46;79.27;97282.59;5082551;28;20310;-84
2023/12/18 01:09:26;;;;;;;6.23;4.80;;;;;;;4.50;79.38;97291.69;5095915;28;20220;-85
2023/12/18 01:11:52;;;;;;;6.10;4.73;;;;;;;4.52;79.79;97296.69;5097371;28;20200;-84
2023/12/18 01:14:19;;;;;;;6.63;4.87;;;;;;;4.57;79.61;97296.41;5083403;28;20224;-84
2023/12/18 01:16:45;;;;;;;5.07;4.57;;;;;;;4.60;79.33;97279.19;5076555;28;20197;-85
2023/12/18 01:19:12;;;;;;;4.43;4.03;;;;;;;4.56;79.01;97277.75;5076152;28;20287;-85
2023/12/18 01:21:40;;;;;;;5.00;4.50;;;;;;;4.56;78.78;97275.19;5084940;28;20218;-84
2023/12/18 01:24:07;;;;;;;4.93;4.43;;;;;;;4.54;79.10;97277.03;5094868;28;20200;-83
2023/12/18 01:26:37;;;;;;;7.53;4.33;;;;;;;4.57;79.31;97296.41;5096965;28;20208;-85
2023/12/18 01:29:03;;;;;;;4.70;4.20;;;;;;;4.61;79.61;97293.59;5094047;28;20231;-87
2023/12/18 01:31:30;;;;;;;4.20;3.80;;;;;;;4.62;79.52;97294.41;5086291;28;20235;-86
2023/12/18 01:33:58;;;;;;;4.43;4.03;;;;;;;4.62;79.59;97289.31;5075269;28;20221;-86
2023/12/18 01:36:24;;;;;;;4.40;4.00;;;;;;;4.61;79.40;97280.81;5086026;28;20192;-88
2023/12/18 01:38:52;;;;;;;5.03;3.67;;;;;;;4.57;79.23;97276.84;5094176;28;20196;-87
2023/12/18 01:41:19;;;;;;;4.90;4.07;;;;;;;4.60;79.12;97273.28;5096282;28;20290;-86
2023/12/18 01:43:45;;;;;;;4.57;4.10;;;;;;;4.54;79.66;97282.13;5095336;28;20196;-87
2023/12/18 01:46:17;;;;;;;4.80;3.90;;;;;;;4.47;80.37;97286.78;5096085;28;20200;-87
2023/12/18 01:48:44;;;;;;;4.23;3.70;;;;;;;4.46;80.29;97292.78;5095194;28;20196;-87
2023/12/18 01:51:10;;;;;;;5.07;4.20;;;;;;;4.47;80.61;97291.06;5079862;28;20193;-87
2023/12/18 01:53:42;;;;;;;4.10;3.70;;;;;;;4.49;80.19;97290.06;5079433;28;20232;-86
2023/12/18 01:56:12;;;;;;;4.90;3.87;;;;;;;4.49;80.00;97277.31;5099103;28;20200;-84
2023/12/18 01:58:39;;;;;;;4.47;3.50;;;;;;;4.47;80.11;97268.94;5099707;28;20204;-85
2023/12/18 02:01:06;;;;;;;4.00;3.60;;;;;;;4.42;81.05;97293.09;5099982;28;20200;-86
2023/12/18 02:03:34;;;;;;;3.80;3.37;;;;;;;4.46;81.21;97297.91;5099700;28;20323;-85
2023/12/18 02:06:02;;;;;;;3.80;3.40;;;;;;;4.50;81.46;97295.97;5081421;28;20201;-85
2023/12/18 02:08:32;;;;;;;3.17;2.87;;;;;;;4.55;81.61;97295.69;5087217;28;20225;-85
2023/12/18 02:10:59;;;;;;;3.53;3.07;;;;;;;4.57;81.68;97289.59;5097324;28;20231;-86
2023/12/18 02:13:28;;;;;;;3.17;2.87;;;;;;;4.59;81.73;97292.03;5099061;28;20689;-84
2023/12/18 02:15:54;;;;;;;3.97;2.90;;;;;;;4.59;81.52;97284.38;5098802;28;20304;-86
2023/12/18 02:18:21;;;;;;;3.40;3.07;;;;;;;4.61;81.45;97272.34;5098089;28;20196;-85
2023/12/18 02:20:47;;;;;;;2.83;2.60;;;;;;;4.64;81.48;97282.34;5101939;28;20222;-85
2023/12/18 02:23:15;;;;;;;2.90;2.60;;;;;;;4.67;81.40;97269.38;5099663;28;20188;-85
2023/12/18 02:25:41;;;;;;;2.90;2.60;;;;;;;4.70;80.79;97254.72;5098397;28;20196;-85
2023/12/18 02:28:11;;;;;;;2.70;2.50;;;;;;;4.71;81.04;97252.97;5095274;28;20207;-86
2023/12/18 02:30:37;;;;;;;2.80;2.60;;;;;;;4.73;80.47;97240.94;5097801;28;20255;-86
2023/12/18 02:33:05;;;;;;;2.67;2.40;;;;;;;4.74;80.29;97234.91;5097243;28;20215;-86
2023/12/18 02:35:31;;;;;;;2.90;2.40;;;;;;;4.73;80.20;97230.72;5098677;28;20220;-85
2023/12/18 02:37:57;;;;;;;3.00;2.67;;;;;;;4.72;80.00;97229.91;5092708;28;20197;-86
2023/12/18 02:40:26;;;;;;;3.43;2.60;;;;;;;4.70;80.00;97226.63;5078010;28;20228;-85
2023/12/18 02:42:53;;;;;;;2.60;2.40;;;;;;;4.71;80.16;97230.84;5077890;28;20568;-86
2023/12/18 02:45:20;;;;;;;2.70;2.27;;;;;;;4.67;79.85;97226.84;5097256;28;20563;-86
2023/12/18 02:47:46;;;;;;;3.53;2.73;;;;;;;4.63;80.03;97220.28;5097305;28;20196;-86
2023/12/18 02:50:13;;;;;;;3.97;2.60;;;;;;;4.68;79.94;97225.09;5084508;28;20717;-86
2023/12/18 02:52:39;;;;;;;3.10;2.60;;;;;;;4.70;79.89;97216.44;5078000;28;20200;-85
2023/12/18 02:55:07;;;;;;;2.60;2.40;;;;;;;4.73;79.44;97212.88;5077584;28;20207;-85
2023/12/18 02:57:34;;;;;;;2.63;2.30;;;;;;;4.69;79.20;97204.59;5080012;28;20238;-86
2023/12/18 03:00:01;;;;;;;2.73;2.53;;;;;;;4.64;79.35;97201.53;5095597;28;20227;-85
2023/12/18 03:02:27;;;;;;;2.77;2.57;;;;;;;4.61;79.07;97196.66;5097937;28;20216;-86
2023/12/18 03:04:54;;;;;;;2.93;2.43;;;;;;;4.60;79.67;97214.59;5099095;28;20216;-85
2023/12/18 03:07:20;;;;;;;2.60;2.23;;;;;;;4.59;80.03;97220.63;5099389;28;20207;-85
2023/12/18 03:09:47;;;;;;;3.40;2.37;;;;;;;4.62;80.17;97223.75;5078178;28;20217;-86
2023/12/18 03:12:13;;;;;;;2.40;2.10;;;;;;;4.67;79.80;97208.16;5085841;28;20260;-85
2023/12/18 03:14:41;;;;;;;2.43;2.00;;;;;;;4.70;79.49;97201.13;5098023;28;20220;-85
2023/12/18 03:17:07;;;;;;;2.07;1.90;;;;;;;4.73;79.57;97197.56;5096306;28;20204;-86
2023/12/18 03:19:34;;;;;;;2.00;1.90;;;;;;;4.72;79.65;97203.59;5079873;28;20216;-84
2023/12/18 03:22:02;;;;;;;2.20;2.00;;;;;;;4.76;79.28;97195.63;5084039;28;20206;-85
2023/12/18 03:24:29;;;;;;;2.00;1.80;;;;;;;4.77;79.28;97192.16;5087536;28;20195;-85
2023/12/18 03:26:55;;;;;;;1.90;1.70;;;;;;;4.80;79.41;97191.16;5096549;28;20299;-85
2023/12/18 03:29:21;;;;;;;2.03;1.70;;;;;;;4.83;79.02;97184.09;5080622;28;20220;-86
2023/12/18 03:31:49;;;;;;;2.50;2.10;;;;;;;4.85;78.88;97176.34;5078899;28;20308;-85
2023/12/18 03:34:15;;;;;;;1.87;1.73;;;;;;;4.89;78.38;97167.56;5089814;28;20220;-84
2023/12/18 03:36:41;;;;;;;2.10;1.90;;;;;;;4.91;78.27;97163.16;5091023;28;20192;-85
2023/12/18 03:39:08;;;;;;;2.10;1.90;;;;;;;4.90;78.19;97164.09;5080894;28;20225;-85
2023/12/18 03:41:34;;;;;;;2.63;1.90;;;;;;;4.88;78.16;97160.00;5073929;28;20229;-84
2023/12/18 03:44:01;;;;;;;2.07;1.90;;;;;;;4.90;78.46;97158.16;5081343;28;20566;-85
2023/12/18 03:46:27;;;;;;;1.80;1.70;;;;;;;4.88;78.54;97145.50;5094123;28;20685;-86
2023/12/18 03:48:55;;;;;;;1.80;1.70;;;;;;;4.88;78.36;97155.72;5091314;28;20215;-84
2023/12/18 03:51:22;;;;;;;2.37;1.60;;;;;;;4.90;78.41;97145.41;5094899;28;20203;-87
2023/12/18 03:53:48;;;;;;;2.17;1.70;;;;;;;4.94;77.89;97144.28;5078437;28;20286;-85
2023/12/18 03:56:17;;;;;;;1.90;1.53;;;;;;;4.95;77.98;97133.16;5073940;28;20720;-85
2023/12/18 03:58:44;;;;;;;1.70;1.60;;;;;;;4.95;78.00;97138.25;5073477;28;20201;-85
2023/12/18 04:01:10;;;;;;;1.80;1.60;;;;;;;4.91;77.93;97139.38;5087065;28;20546;-86
2023/12/18 04:03:37;;;;;;;1.70;1.60;;;;;;;4.91;78.00;97145.31;5092972;28;20204;-85
2023/12/18 04:06:08;;;;;;;1.70;1.60;;;;;;;4.86;78.19;97144.78;5090031;28;20291;-86
2023/12/18 04:08:34;;;;;;;1.60;1.50;;;;;;;4.87;78.31;97159.19;5082889;28;20196;-86
2023/12/18 04:11:00;;;;;;;1.57;1.47;;;;;;;4.89;78.82;97161.63;5093495;28;20220;-86
2023/12/18 04:13:27;;;;;;;3.00;1.50;;;;;;;4.89;78.67;97164.19;5093585;28;20220;-85
2023/12/18 04:15:53;;;;;;;1.50;1.40;;;;;;;4.89;78.87;97157.34;5079608;28;20205;-86
2023/12/18 04:18:20;;;;;;;1.40;1.30;;;;;;;4.93;78.69;97163.06;5074339;28;20196;-86
2023/12/18 04:20:46;;;;;;;2.17;1.57;;;;;;;4.87;78.61;97166.84;5084153;28;20283;-85
2023/12/18 04:23:14;;;;;;;1.87;1.43;;;;;;;4.91;79.25;97175.13;5094270;28;20268;-86
2023/12/18 04:25:41;;;;;;;1.30;1.20;;;;;;;4.92;79.07;97174.19;5093088;28;20200;-85
2023/12/18 04:28:07;;;;;;;1.67;1.40;;;;;;;4.95;79.00;97171.44;5091870;28;20689;-86
2023/12/18 04:30:34;;;;;;;1.40;1.30;;;;;;;4.97;79.04;97167.88;5072136;28;20229;-86
2023/12/18 04:33:00;;;;;;;1.50;1.40;;;;;;;5.00;79.12;97151.53;5082503;28;20199;-86
2023/12/18 04:35:26;;;;;;;1.87;1.40;;;;;;;5.01;78.69;97151.41;5084417;28;20209;-85
2023/12/18 04:37:53;;;;;;;1.50;1.30;;;;;;;4.94;79.00;97167.25;5083186;28;20216;-86
2023/12/18 04:40:23;;;;;;;1.40;1.30;;;;;;;4.97;79.11;97170.44;5092185;28;20303;-85
2023/12/18 04:42:53;;;;;;;1.20;1.10;;;;;;;4.96;79.43;97165.41;5092977;28;20338;-85
2023/12/18 04:45:19;;;;;;;1.83;1.40;;;;;;;4.99;79.14;97153.28;5092285;28;20199;-84
2023/12/18 04:47:46;;;;;;;1.40;1.30;;;;;;;4.98;78.71;97156.75;5093014;28;20200;-85
2023/12/18 04:50:13;;;;;;;2.57;1.33;;;;;;;4.98;78.92;97156.75;5102605;28;20220;-85
2023/12/18 04:52:39;;;;;;;1.50;1.10;;;;;;;4.90;79.27;97158.97;5104776;28;20215;-85
2023/12/18 04:55:06;;;;;;;1.20;1.10;;;;;;;4.91;79.63;97170.00;5089963;28;20223;-85
2023/12/18 04:57:34;;;;;;;1.20;1.10;;;;;;;4.94;79.23;97164.69;5093127;28;20208;-85
2023/12/18 05:00:00;;;;;;;1.10;1.00;;;;;;;4.97;79.26;97161.94;5089005;28;20800;-86
2023/12/18 05:02:27;;;;;;;1.20;1.10;;;;;;;4.95;79.29;97168.91;5087208;28;20207;-86
2023/12/18 05:04:53;;;;;;;1.30;1.20;;;;;;;4.92;79.34;97162.25;5071262;28;20205;-86
2023/12/18 05:07:20;;;;;;;1.00;0.90;;;;;;;4.96;79.20;97156.03;5075694;28;20196;-87
2023/12/18 05:09:46;;;;;;;1.53;1.20;;;;;;;4.96;78.96;97166.25;5084543;28;20238;-85
2023/12/18 05:12:15;;;;;;;1.33;1.17;;;;;;;4.93;79.30;97163.06;5090039;28;20226;-84
2023/12/18 05:14:43;;;;;;;1.53;1.03;;;;;;;4.99;79.15;97160.13;5079552;28;20223;-86
2023/12/18 05:17:10;;;;;;;1.70;1.60;;;;;;;4.99;78.85;97150.72;5083076;28;20198;-86
2023/12/18 05:19:37;;;;;;;1.20;1.10;;;;;;;5.01;78.75;97158.25;5086270;28;20209;-85
2023/12/18 05:22:03;;;;;;;1.30;1.20;;;;;;;5.03;78.70;97147.03;5071188;28;20204;-85
2023/12/18 05:24:30;;;;;;;1.27;1.13;;;;;;;5.03;78.76;97146.19;5070388;28;20265;-86
2023/12/18 05:26:56;;;;;;;2.57;1.10;;;;;;;5.02;78.60;97152.22;5089954;28;20295;-85
2023/12/18 05:29:23;;;;;;;1.07;0.97;;;;;;;5.01;78.82;97155.69;5090070;28;20224;-86
2023/12/18 05:31:51;;;;;;;1.50;1.20;;;;;;;4.95;78.71;97149.28;5091527;28;20239;-85
2023/12/18 05:34:17;;;;;;;1.50;1.13;;;;;;;4.96;78.97;97158.59;5084544;28;20212;-84
2023/12/18 05:36:43;;;;;;;1.07;1.00;;;;;;;4.96;78.81;97155.22;5077149;28;20231;-85
2023/12/18 05:39:10;;;;;;;0.97;0.97;;;;;;;5.03;78.48;97144.47;5091626;28;20592;-85
2023/12/18 05:41:37;;;;;;;2.07;1.07;;;;;;;5.03;78.28;97138.53;5091224;28;20203;-85
2023/12/18 05:44:03;;;;;;;1.20;1.10;;;;;;;5.02;78.41;97137.72;5091864;28;20789;-85
2023/12/18 05:46:30;;;;;;;1.20;1.10;;;;;;;5.04;77.90;97133.34;5084519;28;20292;-85
2023/12/18 05:48:57;;;;;;;1.10;1.00;;;;;;;5.04;77.95;97135.06;5075507;28;20215;-86
2023/12/18 05:51:24;;;;;;;1.50;1.20;;;;;;;5.04;78.12;97132.53;5071400;28;20200;-85
2023/12/18 05:53:51;;;;;;;1.33;1.10;;;;;;;5.03;77.75;97129.16;5071028;28;20223;-85
2023/12/18 05:56:17;;;;;;;1.30;1.20;;;;;;;5.06;78.04;97138.34;5072246;28;20207;-85
2023/12/18 05:58:44;;;;;;;1.00;1.00;;;;;;;5.09;77.91;97130.47;5087661;28;20288;-86
2023/12/18 06:01:10;;;;;;;2.63;1.47;;;;;;;5.07;77.81;97132.31;5085025;28;20235;-84
2023/12/18 06:03:36;;;;;;;2.17;1.20;;;;;;;5.08;77.97;97133.94;5091188;28;20206;-85
2023/12/18 06:06:06;;;;;;;2.00;1.30;;;;;;;5.08;77.78;97137.31;5078691;28;20218;-86
2023/12/18 06:08:33;;;;;;;1.87;1.20;;;;;;;5.08;78.04;97139.88;5087505;28;20199;-86
2023/12/18 06:10:59;;;;;;;2.30;1.30;;;;;;;5.05;78.03;97140.06;5097999;28;20578;-84
2023/12/18 06:13:26;;;;;;;1.60;1.40;;;;;;;5.07;77.63;97135.69;5089294;28;20192;-86
2023/12/18 06:15:52;;;;;;;3.63;1.50;;;;;;;5.08;77.53;97132.22;5099602;28;20228;-84
2023/12/18 06:18:20;;;;;;;2.73;1.30;;;;;;;5.10;77.57;97121.91;5099128;28;20219;-85
2023/12/18 06:20:46;;;;;;;2.07;1.20;;;;;;;5.03;77.63;97121.50;5099588;28;20212;-83
2023/12/18 06:23:14;;;;;;;1.33;1.17;;;;;;;5.02;77.72;97122.41;5095557;28;20665;-86
2023/12/18 06:25:41;;;;;;;1.20;1.10;;;;;;;5.00;78.26;97133.69;5095363;28;20203;-85
2023/12/18 06:28:07;;;;;;;1.20;1.10;;;;;;;5.00;77.95;97133.69;5095888;28;20200;-85
2023/12/18 06:30:33;;;;;;;1.67;1.53;;;;;;;4.99;77.87;97134.59;5091002;28;20223;-85
2023/12/18 06:33:00;;;;;;;2.50;1.20;;;;;;;5.00;78.19;97126.84;5097035;28;20201;-85
2023/12/18 06:35:26;;;;;;;3.43;1.37;;;;;;;5.02;78.02;97126.69;5098463;28;20224;-85
2023/12/18 06:37:53;;;;;;;1.90;1.70;;;;;;;5.05;77.88;97122.22;5101499;28;20204;-85
2023/12/18 06:40:21;;;;;;;2.27;1.60;;;;;;;5.07;77.39;97120.38;5102395;28;20220;-85
2023/12/18 06:42:47;;;;;;;4.07;1.60;;;;;;;5.05;77.21;97114.56;5103359;28;20741;-85
2023/12/18 06:45:14;;;;;;;1.40;1.30;;;;;;;5.03;77.45;97118.94;5101535;28;20208;-82
2023/12/18 06:47:40;;;;;;;1.50;1.40;;;;;;;4.98;78.36;97138.88;5103139;28;20204;-85
2023/12/18 06:50:07;;;;;;;1.90;1.70;;;;;;;4.98;78.32;97138.88;5102115;28;20216;-85
2023/12/18 06:52:34;;;;;;;9.63;1.97;;;;;;;4.98;78.70;97151.63;5103055;28;20522;-84
2023/12/18 06:55:03;;;;;;;2.37;1.70;;;;;;;4.99;78.52;97139.69;5102135;28;20471;-85
2023/12/18 06:57:31;;;;;;;3.20;1.80;;;;;;;4.98;78.44;97144.00;5099321;28;20263;-86
2023/12/18 06:59:57;;;;;;;11.83;6.73;;;;;;;5.01;78.33;97142.94;5098179;28;20223;-85
2023/12/18 07:02:26;;;;;;;4.63;3.40;;;;;;;5.05;77.83;97131.59;5097324;28;20196;-85
2023/12/18 07:04:52;;;;;;;2.20;2.00;;;;;;;5.02;77.80;97127.53;5097220;28;20204;-85
2023/12/18 07:07:21;;;;;;;2.67;1.60;;;;;;;5.03;77.90;97128.34;5096255;28;20200;-85
2023/12/18 07:09:52;;;;;;;1.90;1.40;;;;;;;5.04;77.61;97122.31;5083540;28;20990;-86
2023/12/18 07:12:20;;;;;;;1.70;1.10;;;;;;;5.00;77.51;97121.72;5077342;28;20181;-85
2023/12/18 07:14:48;;;;;;;1.37;1.27;;;;;;;5.01;77.68;97123.34;5075593;28;20224;-86
2023/12/18 07:17:15;;;;;;;1.70;1.40;;;;;;;4.99;77.65;97117.53;5076837;28;20204;-87
2023/12/18 07:19:41;;;;;;;3.33;1.40;;;;;;;5.03;77.47;97118.94;5079246;28;20227;-87
2023/12/18 07:22:08;;;;;;;1.57;1.27;;;;;;;5.08;77.18;97118.63;5097336;28;20206;-85
2023/12/18 07:24:34;;;;;;;2.07;1.17;;;;;;;5.12;77.30;97117.50;5098112;28;20196;-88
2023/12/18 07:27:04;;;;;;;1.23;1.13;;;;;;;5.11;77.06;97114.13;5088733;28;20214;-85
2023/12/18 07:29:30;;;;;;;1.67;1.40;;;;;;;5.13;76.94;97106.38;5075819;28;20216;-86
2023/12/18 07:31:58;;;;;;;2.90;1.53;;;;;;;5.13;76.53;97107.19;5076349;28;20223;-86
2023/12/18 07:34:24;;;;;;;2.10;1.40;;;;;;;5.15;76.74;97102.00;5096134;28;20448;-88
2023/12/18 07:36:51;;;;;;;3.43;1.67;;;;;;;5.12;76.83;97104.75;5095259;28;20196;-88
2023/12/18 07:39:31;;;;;;;2.10;1.67;;;;;;;5.16;76.56;97104.44;5095299;28;20592;-88
2023/12/18 07:41:57;;;;;;;2.70;1.73;;;;;;;5.17;76.70;97103.53;5093827;28;20223;-88
2023/12/18 07:44:26;;;;;;;3.37;1.60;;;;;;;5.18;76.53;97102.59;5093991;28;20231;-88
2023/12/18 07:46:53;;;;;;;2.53;1.50;;;;;;;5.27;76.61;97113.09;5093745;28;20207;-88
2023/12/18 07:49:33;;;;;;;;;;;;;;;;;;;;;
2023/12/18 07:51:59;;;;;;;1.83;1.57;;;;;;;5.51;75.91;97101.16;5093202;28;20279;-87
2023/12/18 07:54:26;;;;;;;1.40;1.30;;;;;;;5.54;75.52;97077.97;5092765;28;20207;-88
2023/12/18 07:56:52;;;;;;;3.70;1.67;;;;;;;5.62;74.79;97064.63;5093326;28;20199;-88
2023/12/18 07:59:20;;;;;;;2.60;1.40;;;;;;;5.67;74.98;97063.38;5092195;28;20219;-88
2023/12/18 08:01:49;;;;;;;1.90;1.60;;;;;;;5.73;74.84;97062.94;5092726;28;20211;-88
2023/12/18 08:04:15;;;;;;;1.90;1.60;;;;;;;6.00;73.86;97042.25;5092702;28;20196;-88
2023/12/18 08:06:43;;;;;;;2.50;1.70;;;;;;;6.29;73.76;97031.63;5083965;28;20227;-88
2023/12/18 08:09:09;;;;;;;11.67;9.73;;;;;;;6.48;72.33;96994.31;5093955;28;20204;-88
2023/12/18 08:11:36;;;;;;;6.43;5.07;;;;;;;6.81;72.14;96982.44;5094745;28;20211;-87
2023/12/18 08:14:02;;;;;;;4.57;2.87;;;;;;;7.09;70.76;96943.50;5094045;28;20211;-88
2023/12/18 08:16:39;;;;;;;2.30;1.90;;;;;;;7.37;69.52;96879.78;5094340;28;20220;-88
2023/12/18 08:19:08;;;;;;;1.93;1.70;;;;;;;7.63;68.76;96850.28;5093532;28;20226;-88
2023/12/18 08:21:34;;;;;;;2.13;1.50;;;;;;;7.87;67.35;96796.97;5093119;28;20212;-85
2023/12/18 08:24:02;;;;;;;1.73;1.53;;;;;;;8.14;66.77;96767.31;5087655;28;20200;-85
2023/12/18 08:26:29;;;;;;;2.43;1.80;;;;;;;8.37;65.56;96732.81;5092148;28;20192;-84
2023/12/18 08:28:59;;;;;;;3.30;1.77;;;;;;;8.69;64.92;96700.91;5093330;28;20212;-88
2023/12/18 08:31:34;;;;;;;3.30;1.63;;;;;;;8.99;63.79;96651.94;5092232;28;20204;-86
2023/12/18 08:34:01;;;;;;;1.47;1.37;;;;;;;9.33;63.02;96611.91;5093115;28;20192;-84
2023/12/18 08:36:29;;;;;;;2.37;1.30;;;;;;;9.57;61.76;96544.50;5094533;28;20224;-84
2023/12/18 08:38:56;;;;;;;2.10;1.40;;;;;;;9.84;61.69;96546.19;5090385;28;20571;-85
2023/12/18 08:41:24;;;;;;;4.10;1.70;;;;;;;10.07;61.49;96515.66;5092525;28;20267;-85
2023/12/18 08:43:53;;;;;;;4.17;1.60;;;;;;;10.14;60.16;96464.41;5091635;28;20211;-86
2023/12/18 08:46:19;;;;;;;2.57;1.53;;;;;;;10.16;59.84;96454.78;5091440;28;20204;-86
2023/12/18 08:48:46;;;;;;;3.33;1.93;;;;;;;10.14;59.34;96444.63;5091005;28;20226;-85
2023/12/18 08:51:12;;;;;;;2.60;1.80;;;;;;;10.14;60.72;96497.84;5093668;28;20253;-85
2023/12/18 08:53:42;;;;;;;2.60;2.40;;;;;;;9.97;60.34;96494.38;5097901;28;20203;-85
2023/12/18 08:56:12;;;;;;;28.23;25.03;;;;;;;10.02;60.48;96502.41;5092829;28;20639;-85
2023/12/18 08:58:47;;;;;;;3.73;3.20;;;;;;;9.91;61.06;96518.13;5092067;28;20284;-85
2023/12/18 09:01:13;;;;;;;4.40;3.13;;;;;;;9.98;60.94;96524.28;5081073;28;20216;-85
2023/12/18 09:03:41;;;;;;;3.47;2.13;;;;;;;10.18;60.68;96517.19;5090790;28;20202;-86
2023/12/18 09:06:07;;;;;;;2.33;1.60;;;;;;;10.23;59.03;96427.47;5091919;28;20573;-85
2023/12/18 09:08:39;;;;;;;1.67;1.57;;;;;;;10.39;59.35;96455.91;5082201;28;20192;-85
2023/12/18 09:11:15;;;;;;;;;;;;;;;;;;;;;
2023/12/18 09:13:51;;;;;;;4.67;1.60;;;;;;;10.59;58.93;96439.22;5092345;28;20300;-87
2023/12/18 09:16:20;;;;;;;4.90;1.97;;;;;;;10.78;63.98;96702.69;5093910;28;20226;-85
2023/12/18 09:18:46;;;;;;;9.77;2.23;;;;;;;11.05;63.81;96742.03;5096800;28;20230;-85
2023/12/18 09:21:16;;;;;;;3.00;1.87;;;;;;;11.32;58.86;96464.38;5091297;28;20212;-85
2023/12/18 09:23:44;;;;;;;3.60;2.10;;;;;;;11.43;57.85;96395.25;5091692;28;20754;-86
2023/12/18 09:26:10;;;;;;;4.07;2.40;;;;;;;11.44;56.61;96313.53;5090911;28;20196;-86
2023/12/18 09:28:42;;;;;;;5.93;2.20;;;;;;;11.53;56.72;96319.50;5090055;28;20259;-86
2023/12/18 09:31:27;;;;;;;3.93;2.77;;;;;;;11.58;56.77;96318.03;5092167;28;20254;-85
2023/12/18 09:33:56;;;;;;;4.87;2.43;;;;;;;11.68;56.55;96310.13;5090655;28;20180;-85
2023/12/18 09:36:26;;;;;;;3.97;2.70;;;;;;;11.78;56.22;96292.69;5090103;28;20211;-86
2023/12/18 09:38:53;;;;;;;3.57;3.07;;;;;;;11.77;55.47;96257.53;5092453;28;20267;-85
2023/12/18 09:41:23;;;;;;;3.83;2.63;;;;;;;11.79;55.77;96263.34;5092783;28;20201;-85
2023/12/18 09:43:51;;;;;;;4.10;3.03;;;;;;;11.86;56.03;96281.53;5090835;28;20265;-84
2023/12/18 09:46:23;;;;;;;4.57;4.13;;;;;;;11.88;56.01;96269.28;5092517;28;20203;-85
2023/12/18 09:48:51;;;;;;;6.93;6.23;;;;;;;11.93;55.48;96246.38;5092817;28;20212;-84
2023/12/18 09:51:21;;;;;;;4.37;3.17;;;;;;;11.95;55.39;96236.66;5091968;28;20220;-85
2023/12/18 09:53:56;;;;;;;6.57;3.37;;;;;;;12.01;55.87;96259.22;5092181;28;20206;-87
2023/12/18 09:56:26;;;;;;;4.00;2.63;;;;;;;12.03;55.08;96229.69;5092405;28;20235;-84
2023/12/18 09:59:57;;;;;;;3.50;2.80;;;;;;;12.12;55.18;96256.28;5081281;28;20200;-85
2023/12/18 10:02:26;;;;;;;4.70;3.03;;;;;;;12.11;54.89;96228.84;5003915;28;20681;-84
2023/12/18 10:04:52;;;;;;;3.63;2.80;;;;;;;12.17;55.11;96233.31;5071941;28;20227;-85
2023/12/18 10:07:19;;;;;;;4.97;3.10;;;;;;;12.19;55.10;96228.78;5071836;28;20395;-85
2023/12/18 10:09:50;;;;;;;5.43;2.90;;;;;;;12.25;54.75;96232.47;5089429;28;20223;-84
2023/12/18 10:12:18;;;;;;;2.87;2.57;;;;;;;12.27;54.73;96218.44;5094625;28;20204;-86
2023/12/18 10:14:48;;;;;;;4.53;2.57;;;;;;;12.29;54.35;96203.56;5096898;28;20196;-87
2023/12/18 10:17:15;;;;;;;7.83;3.47;;;;;;;12.23;54.10;96200.84;5067270;28;20807;-85
2023/12/18 10:19:44;;;;;;;6.43;2.97;;;;;;;12.29;54.44;96213.91;5095243;28;20224;-84
2023/12/18 10:22:10;;;;;;;23.03;4.13;;;;;;;12.18;55.20;96252.19;5095619;28;20204;-85
2023/12/18 10:24:43;;;;;;;22.00;3.90;;;;;;;12.19;55.84;96295.09;5095167;28;20211;-85
2023/12/18 10:27:12;;;;;;;6.33;2.73;;;;;;;12.27;55.76;96292.50;5094197;28;20191;-85
2023/12/18 10:29:38;;;;;;;7.87;2.73;;;;;;;12.35;54.87;96243.38;5093167;28;20215;-84
2023/12/18 10:32:05;;;;;;;5.07;2.37;;;;;;;12.40;55.28;96266.91;5093899;28;20561;-84
2023/12/18 10:34:36;;;;;;;6.33;2.50;;;;;;;12.46;55.22;96258.50;5093219;28;20204;-84
2023/12/18 10:37:04;;;;;;;2.20;2.00;;;;;;;12.36;53.60;96168.31;5092686;28;20208;-85
2023/12/18 10:39:36;;;;;;;2.20;2.00;;;;;;;12.31;53.07;96131.09;5092394;28;20220;-85
2023/12/18 10:42:08;;;;;;;2.10;1.90;;;;;;;12.42;53.86;96166.81;5092757;28;20204;-84
2023/12/18 10:44:35;;;;;;;2.47;2.03;;;;;;;12.45;53.21;96136.28;5092734;28;20200;-85
2023/12/18 10:47:04;;;;;;;2.97;1.90;;;;;;;12.49;53.20;96138.53;5091345;28;20208;-85
2023/12/18 10:49:32;;;;;;;2.17;1.93;;;;;;;12.39;53.20;96123.28;5091565;28;20219;-85
2023/12/18 10:52:15;;;;;;;4.10;2.03;;;;;;;12.39;53.08;96125.84;5093093;28;20245;-85
2023/12/18 10:54:45;;;;;;;2.70;2.17;;;;;;;12.42;52.93;96104.84;5083276;28;20729;-85
2023/12/18 10:57:16;;;;;;;5.53;4.47;;;;;;;12.47;53.29;96117.25;5092775;28;20208;-85
2023/12/18 10:59:47;;;;;;;3.17;2.87;;;;;;;12.58;53.23;96140.06;5093773;28;20216;-84
2023/12/18 11:02:16;;;;;;;2.70;2.43;;;;;;;12.35;52.18;96067.78;5095712;28;20272;-85
2023/12/18 11:04:43;;;;;;;2.20;1.90;;;;;;;12.42;53.31;96126.31;5094453;28;20200;-85
2023/12/18 11:07:10;;;;;;;3.07;2.40;;;;;;;12.51;52.85;96105.59;5095305;28;20200;-85
2023/12/18 11:09:37;;;;;;;5.87;2.53;;;;;;;12.62;52.67;96074.16;5093851;28;20216;-85
2023/12/18 11:12:06;;;;;;;4.73;2.30;;;;;;;12.71;51.73;96027.38;5094768;28;20208;-85
2023/12/18 11:14:43;;;;;;;2.33;1.80;;;;;;;12.80;51.16;95999.66;5093985;28;20671;-85
2023/12/18 11:17:19;;;;;;;2.50;1.70;;;;;;;12.87;50.90;95979.09;5094913;28;20208;-84
2023/12/18 11:19:52;;;;;;;1.87;1.60;;;;;;;12.86;50.36;95934.34;5092151;28;20220;-85
2023/12/18 11:22:23;;;;;;;3.13;1.90;;;;;;;12.85;49.96;95908.69;5094319;28;20202;-85
2023/12/18 11:24:49;;;;;;;6.27;3.90;;;;;;;12.80;50.05;95907.44;5096285;28;20219;-85
2023/12/18 11:27:23;;;;;;;4.57;2.50;;;;;;;12.82;50.21;95927.94;5098301;28;20219;-84
2023/12/18 11:29:50;;;;;;;2.70;2.10;;;;;;;12.85;50.76;95939.69;5096427;28;20220;-85
2023/12/18 11:32:42;;;;;;;3.60;1.90;;;;;;;12.88;50.34;95939.34;5097104;28;21010;-84
2023/12/18 11:35:10;;;;;;;2.37;2.07;;;;;;;12.95;50.54;95941.00;5097731;28;20238;-85
2023/12/18 11:37:47;;;;;;;3.97;2.07;;;;;;;13.00;49.96;95919.78;5095946;28;20224;-84
2023/12/18 11:47:57;;;;;;;6.83;2.13;;;;;;;13.20;49.69;95878.66;4910345;29;20279;-87
2023/12/18 12:12:29;;;;;;;2.97;1.80;;;;;;;13.95;48.08;95762.34;6019798;23;20174;-87
2023/12/18 12:15:00;;;;;;;3.90;1.70;;;;;;;13.97;47.33;95715.53;5033938;28;20236;-84